Millington, TN

9:48 AM CDT on April 21, 2015 (GMT -0500)
Lucy | | Change Station
CLOSE
Current Station
Personal Weather Station
Location: Millington, TN
Elevation: 276 ft
Nearby Weather Stations
Active Advisory: Flood Advisory

Elev 276 ft 35.31 °N, 89.93 °W | Updated 12 minutes ago

Partly Cloudy
Partly Cloudy
61.0 °F
Feels Like 61.0 °F
N
0.0
Wind Variable Wind from SW
Gusts 0.0 mph

Today
High -- | Low -- °F
--% Chance of Precip.
Yesterday
High -- | Low -- °F
Precip. -- in
6:19 AM 7:37 PM
Waxing Crescent, 11% visible
Pressure 30.01 in
Visibility 10.0 miles
Clouds Few 15000 ft
Dew Point 41 °F
Humidity 47%
Rainfall 0.00 in
Snow Depth Not available.
UV 3 out of 12
Pollen 9.90 out of 12
Air Quality Not available.
Flu Activity Sporadic
METAR KNQA 211350Z 00000KT 10SM FEW150 14/08 A3001

More Conditions Fewer Conditions

Pressure 30.01 in
Visibility 10.0 miles
Clouds Few 15000 ft
Dew Point 41 °F
Humidity 47%
Rainfall 0.00 in
Snow Depth Not available.
UV 3 out of 12
Pollen 9.90 out of 12
Air Quality Not available.
Flu Activity Sporadic
METAR KNQA 211350Z 00000KT 10SM FEW150 14/08 A3001

More Conditions Fewer Conditions

10-Day Weather Forecast

Almanac

Astronomy

Apr. 21, 2015 Rise Set
Actual Time
Civil Twilight
Nautical Twilight
Astronomical Twilight
Moon
Length of Visible Light
Length of Day
Tomorrow will be .
, % of the Moon is Illuminated

Today's Extremes

State Highs State Lows

Community

WunderPhotos

Upload Photos

1,815,413 photos uploaded!

WunderBlogs® & News

Nearby

Air Quality

  Air Quality AQ Index Pollutant
Not available.

Snow Depth

Station Depth Elevation

Earthquake Activity

City Distance Mag. Time & Date
Minimum magnitude displayed is 2.5.

Coastal Water Temperatures

Place Temperature

Stations

Nearby Weather Stations

Station Location Temp. Windchill Dew Point Humidity Wind Precip. Elev Updated Type
                   
Flood Advisory
Statement as of 8:52 PM CDT on April 20, 2015

The Flood Advisory continues for
the Mississippi River at Memphis
* until Friday April 24.
* At 8 PM Monday the stage was 27.3 feet.
* Flood stage is 34.0 feet.
* Forecast... the river will rise to near 28.4 feet Friday April 24.
* At 28.0 feet... in Arkansas, Dacus Lake Road under the I-55 bridge
begins to flood. Water is encroaching on the levee south of Blue
Lake. The Road to island 40 begins to flood.


Lat... Lon 3539 9025 3539 8995 3533 9005 3513 9004
      3491 9008 3491 9041